Time;durP1;ratioP1;P1;durP2;ratioP2;P2;SDS_P1;SDS_P2;PMS_P1;PMS_P2;Temp;Humidity;BMP_temperature;BMP_pressure;BME280_temperature;BME280_humidity;BME280_pressure;Samples;Min_cycle;Max_cycle;Signal;HPM_P1;HPM_P2
2022/04/13 00:01:44;;;;;;;6.60;2.17;;;13.30;99.90;;;;;;5072418;28;20206;-77
2022/04/13 00:04:11;;;;;;;5.68;1.83;;;13.30;99.90;;;;;;5070831;28;20259;-76
2022/04/13 00:06:39;;;;;;;9.35;2.25;;;13.30;99.90;;;;;;5072503;28;20260;-75
2022/04/13 00:09:07;;;;;;;6.85;2.90;;;13.30;99.90;;;;;;5072158;28;20233;-74
2022/04/13 00:11:34;;;;;;;5.03;2.15;;;13.30;99.90;;;;;;5072156;28;20206;-78
2022/04/13 00:14:02;;;;;;;5.32;1.77;;;13.30;99.90;;;;;;5072638;28;20248;-78
2022/04/13 00:16:30;;;;;;;4.65;2.20;;;13.30;99.90;;;;;;5072004;28;20206;-77
2022/04/13 00:18:57;;;;;;;9.10;2.97;;;13.20;99.90;;;;;;5072221;28;20206;-78
2022/04/13 00:21:24;;;;;;;5.88;2.35;;;13.30;99.90;;;;;;5071946;28;20206;-77
2022/04/13 00:23:51;;;;;;;6.00;2.10;;;13.30;99.90;;;;;;5055272;28;20260;-78
2022/04/13 00:26:18;;;;;;;8.27;3.42;;;13.30;99.90;;;;;;5051592;28;20207;-78
2022/04/13 00:28:45;;;;;;;7.55;2.70;;;13.30;99.90;;;;;;5051798;28;20629;-78
2022/04/13 00:31:13;;;;;;;9.35;3.05;;;13.20;99.90;;;;;;5051495;28;20203;-78
2022/04/13 00:33:40;;;;;;;11.23;3.13;;;13.20;99.90;;;;;;5052165;28;20550;-79
2022/04/13 00:36:07;;;;;;;8.35;2.80;;;13.10;99.90;;;;;;5051726;28;20211;-78
2022/04/13 00:38:34;;;;;;;9.52;2.63;;;13.10;99.90;;;;;;5052181;28;20316;-78
2022/04/13 00:41:01;;;;;;;12.25;3.78;;;13.10;99.90;;;;;;5051859;28;20202;-77
2022/04/13 00:43:28;;;;;;;6.85;2.80;;;13.10;99.90;;;;;;5051257;28;20629;-79
2022/04/13 00:45:55;;;;;;;6.20;2.17;;;13.10;99.90;;;;;;5051514;28;20203;-80
2022/04/13 00:48:29;;;;;;;6.32;2.83;;;13.10;99.90;;;;;;5051392;28;20602;-79
2022/04/13 00:50:56;;;;;;;11.13;2.88;;;13.10;99.90;;;;;;5051370;28;20232;-80
2022/04/13 00:53:24;;;;;;;10.23;2.83;;;13.10;99.90;;;;;;5050552;28;20642;-80
2022/04/13 00:55:55;;;;;;;12.32;2.80;;;13.10;99.90;;;;;;5051350;28;20210;-79
2022/04/13 00:58:24;;;;;;;9.55;2.97;;;13.10;99.90;;;;;;5050808;28;20329;-79
2022/04/13 01:00:51;;;;;;;9.48;2.80;;;13.00;99.90;;;;;;5051715;28;20207;-79
2022/04/13 01:03:20;;;;;;;13.65;4.25;;;13.10;99.90;;;;;;5050978;28;20671;-80
2022/04/13 01:05:49;;;;;;;12.10;3.53;;;13.00;99.90;;;;;;5051614;28;20198;-79
2022/04/13 01:08:17;;;;;;;8.55;2.78;;;13.00;99.90;;;;;;5050861;28;20630;-79
2022/04/13 01:10:45;;;;;;;11.60;3.03;;;13.10;99.90;;;;;;5051347;28;20207;-79
2022/04/13 01:13:13;;;;;;;4.93;2.63;;;13.10;99.90;;;;;;5050805;28;20620;-79
2022/04/13 01:15:40;;;;;;;10.73;2.92;;;13.00;99.90;;;;;;5051206;28;20238;-74
2022/04/13 01:18:08;;;;;;;5.40;2.30;;;13.00;99.90;;;;;;5050513;28;20235;-84
2022/04/13 01:20:39;;;;;;;9.15;4.22;;;13.00;99.90;;;;;;5051672;28;20253;-87
2022/04/13 01:23:08;;;;;;;4.68;2.10;;;13.10;99.90;;;;;;5051091;28;20572;-77
2022/04/13 01:25:35;;;;;;;7.07;2.88;;;13.00;99.90;;;;;;5051127;28;20621;-81
2022/04/13 01:28:02;;;;;;;9.43;2.38;;;13.00;99.90;;;;;;5051319;28;20605;-82
2022/04/13 01:30:29;;;;;;;8.07;2.08;;;13.00;99.90;;;;;;5050732;28;20202;-81
2022/04/13 01:32:58;;;;;;;8.25;2.85;;;13.10;99.90;;;;;;5051097;28;20203;-84
2022/04/13 01:35:25;;;;;;;5.15;2.35;;;13.10;99.90;;;;;;5050866;28;20214;-82
2022/04/13 01:37:52;;;;;;;7.13;2.40;;;13.00;99.90;;;;;;5050550;28;20234;-81
2022/04/13 01:40:20;;;;;;;5.90;1.95;;;13.10;99.90;;;;;;5050545;28;20257;-80
2022/04/13 01:42:49;;;;;;;9.32;2.50;;;13.10;99.90;;;;;;5050637;28;20260;-80
2022/04/13 01:45:19;;;;;;;2.83;1.58;;;13.10;99.90;;;;;;5050870;28;20226;-83
2022/04/13 01:47:48;;;;;;;4.63;2.05;;;13.00;99.90;;;;;;5050937;28;20265;-73
2022/04/13 01:50:16;;;;;;;8.85;2.35;;;13.00;99.90;;;;;;5050345;28;20208;-81
2022/04/13 01:52:43;;;;;;;10.85;3.97;;;13.00;99.90;;;;;;5050613;28;20588;-80
2022/04/13 01:55:10;;;;;;;5.75;2.20;;;13.00;99.90;;;;;;5050516;28;20254;-80
2022/04/13 01:57:40;;;;;;;4.80;1.85;;;13.00;99.90;;;;;;5050880;28;20238;-76
2022/04/13 02:00:10;;;;;;;7.65;2.67;;;13.00;99.90;;;;;;5050447;28;20199;-83
2022/04/13 02:02:37;;;;;;;8.52;2.75;;;13.00;99.90;;;;;;5050898;28;20203;-78
2022/04/13 02:05:05;;;;;;;10.00;2.65;;;13.00;99.90;;;;;;5051575;28;20199;-80
2022/04/13 02:07:32;;;;;;;8.20;2.60;;;13.00;99.90;;;;;;5054707;28;20298;-82
2022/04/13 02:09:59;;;;;;;8.63;2.53;;;13.00;99.90;;;;;;5055154;28;20562;-78
2022/04/13 02:12:26;;;;;;;4.88;2.50;;;13.00;99.90;;;;;;5054329;28;20636;-81
2022/04/13 02:14:55;;;;;;;6.68;2.67;;;13.00;99.90;;;;;;5054521;28;20678;-80
2022/04/13 02:17:22;;;;;;;7.35;2.58;;;13.00;99.90;;;;;;5053991;28;20226;-80
2022/04/13 02:19:49;;;;;;;7.65;2.25;;;13.00;99.90;;;;;;5054500;28;20203;-78
2022/04/13 02:22:16;;;;;;;5.53;2.30;;;13.00;99.90;;;;;;5053994;28;20268;-80
2022/04/13 02:24:43;;;;;;;7.70;2.10;;;13.00;99.90;;;;;;5054597;28;20291;-78
2022/04/13 02:27:10;;;;;;;11.02;2.78;;;13.00;99.90;;;;;;5054130;28;20333;-79
2022/04/13 02:29:37;;;;;;;7.97;2.47;;;13.00;99.90;;;;;;5054119;28;20202;-78
2022/04/13 02:32:06;;;;;;;7.00;2.05;;;13.00;99.90;;;;;;5054076;28;20211;-76
2022/04/13 02:34:34;;;;;;;4.03;2.08;;;13.00;99.90;;;;;;5054425;28;20202;-78
2022/04/13 02:37:01;;;;;;;8.17;2.87;;;13.00;99.90;;;;;;5054423;28;20203;-76
2022/04/13 02:39:28;;;;;;;5.70;1.77;;;13.00;99.90;;;;;;5053588;28;20718;-80
2022/04/13 02:41:55;;;;;;;5.28;2.63;;;13.00;99.90;;;;;;5053939;28;20215;-73
2022/04/13 02:44:22;;;;;;;4.65;2.58;;;13.00;99.90;;;;;;5053598;28;20253;-73
2022/04/13 02:46:49;;;;;;;7.57;2.80;;;13.00;99.90;;;;;;5053917;28;20207;-78
2022/04/13 02:49:17;;;;;;;5.55;1.95;;;13.00;99.90;;;;;;5053746;28;20582;-75
2022/04/13 02:51:44;;;;;;;5.38;2.30;;;13.00;99.90;;;;;;5053795;28;20206;-78
2022/04/13 02:54:11;;;;;;;7.80;2.13;;;13.00;99.90;;;;;;5053441;28;20254;-81
2022/04/13 02:56:38;;;;;;;8.48;2.38;;;13.00;99.90;;;;;;5053860;28;20206;-75
2022/04/13 02:59:05;;;;;;;3.15;2.17;;;13.00;99.90;;;;;;5052356;28;20234;-79
2022/04/13 03:01:32;;;;;;;3.90;1.60;;;13.00;99.90;;;;;;5053034;28;20211;-79
2022/04/13 03:03:59;;;;;;;6.03;2.40;;;13.00;99.90;;;;;;5052735;28;20785;-75
2022/04/13 03:06:27;;;;;;;4.13;3.25;;;13.00;99.90;;;;;;5052237;28;20249;-81
2022/04/13 03:08:54;;;;;;;6.82;1.58;;;13.00;99.90;;;;;;5052764;28;20268;-74
2022/04/13 03:11:21;;;;;;;4.38;1.60;;;13.00;99.90;;;;;;5052341;28;20252;-76
2022/04/13 03:13:48;;;;;;;4.97;2.08;;;13.00;99.90;;;;;;5052283;28;20203;-76
2022/04/13 03:16:15;;;;;;;2.80;1.65;;;13.00;99.90;;;;;;5051816;28;20249;-80
2022/04/13 03:18:42;;;;;;;3.78;2.28;;;13.00;99.90;;;;;;5051988;28;20239;-76
2022/04/13 03:21:09;;;;;;;4.47;2.40;;;13.00;99.90;;;;;;5051920;28;20249;-75
2022/04/13 03:23:38;;;;;;;4.67;1.97;;;13.00;99.90;;;;;;5052660;28;20248;-77
2022/04/13 03:26:05;;;;;;;6.65;4.55;;;12.90;99.90;;;;;;5052121;28;20211;-80
2022/04/13 03:28:32;;;;;;;8.40;2.45;;;12.90;99.90;;;;;;5052325;28;20256;-76
2022/04/13 03:30:59;;;;;;;6.10;3.27;;;12.90;99.90;;;;;;5052040;28;20667;-78
2022/04/13 03:33:26;;;;;;;3.30;1.63;;;12.90;99.90;;;;;;5051478;28;20211;-74
2022/04/13 03:35:52;;;;;;;6.32;1.90;;;12.90;99.90;;;;;;5052079;28;20203;-78
2022/04/13 03:38:19;;;;;;;5.28;2.58;;;12.90;99.90;;;;;;5051536;28;20276;-77
2022/04/13 03:40:48;;;;;;;5.25;1.80;;;12.90;99.90;;;;;;5051837;28;20203;-78
2022/04/13 03:43:15;;;;;;;5.53;1.70;;;12.90;99.90;;;;;;5051628;28;20260;-79
2022/04/13 03:45:42;;;;;;;3.13;1.40;;;12.90;99.90;;;;;;5051794;28;20674;-77
2022/04/13 03:48:09;;;;;;;2.97;1.48;;;12.90;99.90;;;;;;5051383;28;20651;-83
2022/04/13 03:50:36;;;;;;;4.30;2.15;;;12.90;99.90;;;;;;5051727;28;20674;-84
2022/04/13 03:53:03;;;;;;;3.63;1.75;;;12.90;99.90;;;;;;5052142;28;20210;-79
2022/04/13 03:55:30;;;;;;;4.70;1.45;;;12.80;99.90;;;;;;5051502;28;20207;-80
2022/04/13 03:57:58;;;;;;;2.58;1.13;;;12.80;99.90;;;;;;5012587;28;1130274;-82
2022/04/13 04:00:26;;;;;;;3.70;1.70;;;12.90;99.90;;;;;;5052458;28;20288;-76
2022/04/13 04:02:53;;;;;;;5.05;2.40;;;12.90;99.90;;;;;;5052613;28;20602;-75
2022/04/13 04:05:20;;;;;;;3.47;1.73;;;12.90;99.90;;;;;;5052060;28;20203;-78
2022/04/13 04:07:48;;;;;;;3.75;1.55;;;12.90;99.90;;;;;;5052614;28;20202;-84
2022/04/13 04:10:15;;;;;;;7.05;1.60;;;12.80;99.90;;;;;;5051894;28;20215;-77
2022/04/13 04:12:42;;;;;;;6.63;2.25;;;12.90;99.90;;;;;;5052509;28;20203;-78
2022/04/13 04:15:11;;;;;;;11.75;2.13;;;12.80;99.90;;;;;;5052053;28;20253;-80
2022/04/13 04:17:39;;;;;;;3.80;1.67;;;12.80;99.90;;;;;;5051971;28;20268;-77
2022/04/13 04:20:07;;;;;;;5.45;1.85;;;12.80;99.90;;;;;;5052354;28;20207;-78
2022/04/13 04:22:35;;;;;;;5.13;2.00;;;12.80;99.90;;;;;;5052197;28;20203;-79
2022/04/13 04:25:03;;;;;;;9.35;2.08;;;12.80;99.90;;;;;;5052672;28;20261;-74
2022/04/13 04:27:30;;;;;;;3.20;1.50;;;12.70;99.90;;;;;;5051437;28;20690;-79
2022/04/13 04:29:57;;;;;;;3.08;2.53;;;12.70;99.90;;;;;;5052111;28;20210;-76
2022/04/13 04:32:25;;;;;;;3.22;1.88;;;12.70;99.90;;;;;;5051982;28;20210;-78
2022/04/13 04:34:53;;;;;;;3.03;1.55;;;12.70;99.90;;;;;;5052284;28;20199;-80
2022/04/13 04:37:20;;;;;;;6.18;1.55;;;12.70;99.90;;;;;;5051724;28;20210;-81
2022/04/13 04:39:47;;;;;;;3.15;1.45;;;12.70;99.90;;;;;;5072396;28;20769;-79
2022/04/13 04:42:14;;;;;;;4.30;1.85;;;12.70;99.90;;;;;;5072598;28;20206;-83
2022/04/13 04:44:40;;;;;;;5.97;1.92;;;12.60;99.90;;;;;;5071610;28;20210;-84
2022/04/13 04:47:08;;;;;;;5.60;2.23;;;12.70;99.90;;;;;;5070964;28;20202;-77
2022/04/13 04:49:36;;;;;;;3.33;1.38;;;12.70;99.90;;;;;;5071652;28;20206;-80
2022/04/13 04:52:04;;;;;;;2.58;1.25;;;12.70;99.90;;;;;;5072096;28;20202;-81
2022/04/13 04:54:31;;;;;;;9.07;2.27;;;12.70;99.90;;;;;;5071710;28;20198;-84
2022/04/13 04:56:58;;;;;;;6.10;2.58;;;12.70;99.90;;;;;;5071105;28;20210;-80
2022/04/13 04:59:25;;;;;;;7.78;2.65;;;12.70;99.90;;;;;;5071059;28;20238;-80
2022/04/13 05:01:52;;;;;;;4.28;1.70;;;12.70;99.90;;;;;;5071068;28;20209;-80
2022/04/13 05:04:18;;;;;;;2.58;1.48;;;12.70;99.90;;;;;;5070925;28;20255;-83
2022/04/13 05:06:47;;;;;;;4.35;1.35;;;12.70;99.90;;;;;;5071557;28;20256;-80
2022/04/13 05:09:17;;;;;;;3.00;1.67;;;12.80;99.90;;;;;;5071426;28;20283;-83
2022/04/13 05:11:44;;;;;;;3.15;1.83;;;12.80;99.90;;;;;;5070848;28;20247;-82
2022/04/13 05:14:11;;;;;;;3.15;1.70;;;12.80;99.90;;;;;;5071224;28;20259;-79
2022/04/13 05:16:38;;;;;;;4.18;2.42;;;12.80;99.90;;;;;;5071238;28;20259;-82
2022/04/13 05:19:05;;;;;;;6.43;2.83;;;12.70;99.90;;;;;;5071017;28;20291;-76
2022/04/13 05:21:32;;;;;;;6.60;1.73;;;12.70;99.90;;;;;;5071510;28;20202;-81
2022/04/13 05:24:01;;;;;;;3.27;1.53;;;12.70;99.90;;;;;;5070846;28;20198;-81
2022/04/13 05:26:28;;;;;;;4.57;1.50;;;12.70;99.90;;;;;;5070802;28;20206;-78
2022/04/13 05:28:55;;;;;;;5.47;2.05;;;12.70;99.90;;;;;;5070799;28;20206;-83
2022/04/13 05:31:22;;;;;;;3.00;1.80;;;12.70;99.90;;;;;;5071075;28;20263;-75
2022/04/13 05:33:49;;;;;;;5.60;2.13;;;12.70;99.90;;;;;;5070853;28;20257;-80
2022/04/13 05:36:16;;;;;;;2.53;2.25;;;12.70;99.90;;;;;;5070707;28;20669;-82
2022/04/13 05:38:43;;;;;;;6.70;2.50;;;12.80;99.90;;;;;;5070495;28;20229;-79
2022/04/13 05:41:11;;;;;;;6.97;2.70;;;12.70;99.90;;;;;;5070686;28;20243;-78
2022/04/13 05:43:38;;;;;;;5.72;1.92;;;12.80;99.90;;;;;;5070704;28;20210;-79
2022/04/13 05:46:05;;;;;;;7.15;2.33;;;12.70;99.90;;;;;;5070803;28;20241;-79
2022/04/13 05:48:32;;;;;;;5.57;1.80;;;12.80;99.90;;;;;;5071138;28;20229;-79
2022/04/13 05:51:00;;;;;;;6.50;3.50;;;12.80;99.90;;;;;;5070649;28;20275;-78
2022/04/13 05:53:27;;;;;;;7.63;1.90;;;12.80;99.90;;;;;;5070542;28;20681;-80
2022/04/13 05:55:56;;;;;;;7.75;2.20;;;12.80;99.90;;;;;;5070204;28;20263;-78
2022/04/13 05:58:26;;;;;;;7.38;2.63;;;12.80;99.90;;;;;;5070389;28;20595;-77
2022/04/13 06:00:54;;;;;;;8.23;2.00;;;12.80;99.90;;;;;;5070262;28;20202;-75
2022/04/13 06:03:22;;;;;;;10.95;2.58;;;12.80;99.90;;;;;;5070712;28;20255;-79
2022/04/13 06:05:50;;;;;;;7.47;2.88;;;12.80;99.90;;;;;;5070519;28;20324;-77
2022/04/13 06:08:17;;;;;;;5.57;2.60;;;12.80;99.90;;;;;;5070516;28;20202;-78
2022/04/13 06:10:45;;;;;;;4.78;1.95;;;12.80;99.90;;;;;;5070005;28;20662;-77
2022/04/13 06:13:12;;;;;;;4.10;2.38;;;12.80;99.90;;;;;;5070729;28;20736;-79
2022/04/13 06:15:41;;;;;;;9.95;2.78;;;12.80;99.90;;;;;;5070911;28;20206;-78
2022/04/13 06:18:08;;;;;;;11.80;2.13;;;12.80;99.90;;;;;;5070298;28;20233;-75
2022/04/13 06:20:35;;;;;;;9.43;3.45;;;12.80;99.90;;;;;;5070715;28;20234;-73
2022/04/13 06:23:02;;;;;;;5.50;2.22;;;12.80;99.90;;;;;;5070426;28;20203;-74
2022/04/13 06:25:29;;;;;;;6.72;2.67;;;12.90;99.90;;;;;;5070167;28;20206;-74
2022/04/13 06:27:56;;;;;;;3.92;2.13;;;13.00;99.90;;;;;;5070023;28;20688;-74
2022/04/13 06:30:23;;;;;;;11.05;3.00;;;13.10;99.90;;;;;;5070311;28;20233;-76
2022/04/13 06:32:51;;;;;;;4.60;2.42;;;13.10;99.90;;;;;;5069934;28;20206;-75
2022/04/13 06:35:18;;;;;;;7.70;3.08;;;13.20;99.90;;;;;;5070383;28;20198;-80
2022/04/13 06:37:47;;;;;;;6.50;2.85;;;13.10;99.90;;;;;;5069979;28;20662;-78
2022/04/13 06:40:15;;;;;;;7.75;2.70;;;13.00;99.90;;;;;;5069958;28;20230;-76
2022/04/13 06:42:42;;;;;;;6.55;3.08;;;13.00;99.90;;;;;;5070240;28;20248;-78
2022/04/13 06:45:11;;;;;;;5.47;2.78;;;13.00;99.90;;;;;;5070169;28;20550;-76
2022/04/13 06:47:39;;;;;;;4.85;2.88;;;13.00;99.90;;;;;;5070213;28;20203;-77
2022/04/13 06:50:09;;;;;;;9.05;2.90;;;12.90;99.90;;;;;;5070201;28;20206;-75
2022/04/13 06:52:37;;;;;;;18.88;5.50;;;12.90;99.90;;;;;;5073327;28;20202;-75
2022/04/13 06:55:05;;;;;;;12.00;4.07;;;12.90;99.90;;;;;;5073535;28;20670;-75
2022/04/13 06:57:33;;;;;;;7.18;3.05;;;12.90;99.90;;;;;;5073670;28;20209;-76
2022/04/13 07:00:00;;;;;;;14.05;3.47;;;12.80;99.90;;;;;;5073434;28;20705;-76
2022/04/13 07:02:27;;;;;;;7.68;3.05;;;12.70;99.90;;;;;;5073833;28;20210;-77
2022/04/13 07:04:54;;;;;;;11.00;5.13;;;12.70;99.90;;;;;;5072322;28;20288;-77
2022/04/13 07:07:23;;;;;;;10.95;5.25;;;12.70;99.90;;;;;;5077130;28;20206;-77
2022/04/13 07:09:50;;;;;;;14.13;4.68;;;12.70;99.90;;;;;;5072645;28;20664;-77
2022/04/13 07:12:17;;;;;;;14.90;5.10;;;12.60;99.90;;;;;;5073500;28;20209;-77
2022/04/13 07:14:44;;;;;;;9.32;3.03;;;12.70;99.90;;;;;;5072662;28;20214;-76
2022/04/13 07:17:11;;;;;;;9.90;3.20;;;12.60;99.90;;;;;;5062697;28;20267;-76
2022/04/13 07:19:38;;;;;;;11.60;3.83;;;12.60;99.90;;;;;;5073396;28;20295;-76
2022/04/13 07:22:05;;;;;;;11.25;3.50;;;12.60;99.90;;;;;;5072715;28;20263;-76
2022/04/13 07:24:34;;;;;;;11.35;3.58;;;12.50;99.90;;;;;;5053290;28;20203;-76
2022/04/13 07:27:01;;;;;;;10.43;4.03;;;12.60;99.90;;;;;;5053122;28;20202;-81
2022/04/13 07:29:28;;;;;;;7.45;2.60;;;12.60;99.90;;;;;;5052995;28;20203;-77
2022/04/13 07:31:55;;;;;;;10.80;4.03;;;12.60;99.90;;;;;;5052803;28;20234;-75
2022/04/13 07:34:22;;;;;;;12.57;4.22;;;12.60;99.90;;;;;;5052970;28;20203;-77
2022/04/13 07:36:49;;;;;;;8.77;3.88;;;12.60;99.90;;;;;;5052723;28;20218;-79
2022/04/13 07:39:16;;;;;;;13.15;3.20;;;12.70;99.90;;;;;;5052891;28;20227;-77
2022/04/13 07:41:44;;;;;;;7.05;3.17;;;12.70;99.90;;;;;;5052857;28;20203;-75
2022/04/13 07:44:11;;;;;;;12.13;4.45;;;12.70;99.90;;;;;;5052697;28;20294;-75
2022/04/13 07:46:39;;;;;;;8.70;2.78;;;12.70;99.90;;;;;;5060014;28;20243;-77
2022/04/13 07:49:06;;;;;;;9.15;3.10;;;12.70;99.90;;;;;;5070677;28;20259;-76
2022/04/13 07:51:34;;;;;;;8.77;2.60;;;12.70;99.90;;;;;;5071134;28;20206;-77
2022/04/13 07:54:02;;;;;;;10.27;3.75;;;12.80;99.90;;;;;;5071117;28;20202;-73
2022/04/13 07:56:29;;;;;;;7.93;3.20;;;12.70;99.90;;;;;;5070177;28;20293;-74
2022/04/13 07:58:57;;;;;;;9.95;3.85;;;12.70;99.90;;;;;;5069563;28;20674;-72
2022/04/13 08:01:24;;;;;;;13.52;3.05;;;12.70;99.90;;;;;;5070883;28;20252;-75
2022/04/13 08:03:51;;;;;;;8.88;2.75;;;12.70;99.90;;;;;;5070785;28;20210;-74
2022/04/13 08:06:18;;;;;;;6.40;3.35;;;12.70;99.90;;;;;;5072179;28;20202;-74
2022/04/13 08:08:45;;;;;;;9.50;4.38;;;12.60;99.90;;;;;;5071651;28;20202;-75
2022/04/13 08:11:12;;;;;;;12.65;2.95;;;12.60;99.90;;;;;;5072374;28;20271;-74
2022/04/13 08:13:39;;;;;;;8.90;4.57;;;12.70;99.90;;;;;;5072418;28;20666;-75
2022/04/13 08:16:08;;;;;;;13.75;4.43;;;12.60;99.90;;;;;;5071674;28;20256;-74
2022/04/13 08:18:35;;;;;;;9.55;3.20;;;12.70;99.90;;;;;;5072091;28;20255;-74
2022/04/13 08:21:02;;;;;;;13.02;3.72;;;12.60;99.90;;;;;;5071159;28;20245;-74
2022/04/13 08:23:29;;;;;;;17.63;3.97;;;12.60;99.90;;;;;;5071689;28;20206;-71
2022/04/13 08:25:56;;;;;;;11.07;3.88;;;12.50;99.90;;;;;;5070847;28;20319;-73
2022/04/13 08:28:23;;;;;;;13.82;3.88;;;12.50;99.90;;;;;;5071589;28;20264;-74
2022/04/13 08:30:50;;;;;;;10.75;3.55;;;12.60;99.90;;;;;;5070655;28;20620;-73
2022/04/13 08:33:19;;;;;;;11.10;3.38;;;12.50;99.90;;;;;;5071554;28;20213;-74
2022/04/13 08:35:46;;;;;;;11.05;4.45;;;12.50;99.90;;;;;;5070790;28;20255;-74
2022/04/13 08:38:13;;;;;;;12.65;4.47;;;12.50;99.90;;;;;;5071563;28;20256;-76
2022/04/13 08:40:52;;;;;;;8.25;3.10;;;12.50;99.90;;;;;;5070108;28;20774;-73
2022/04/13 08:43:27;;;;;;;12.95;4.53;;;12.60;99.90;;;;;;5070819;28;20202;-73
2022/04/13 08:45:55;;;;;;;14.80;4.38;;;12.60;99.90;;;;;;5070683;28;20604;-74
2022/04/13 08:48:27;;;;;;;17.05;4.80;;;12.50;99.90;;;;;;5071118;28;20198;-71
2022/04/13 08:50:59;;;;;;;13.30;5.55;;;12.30;99.90;;;;;;5070549;28;20661;-71
2022/04/13 08:53:29;;;;;;;10.70;3.85;;;12.30;99.90;;;;;;5058140;28;20206;-73
2022/04/13 08:55:58;;;;;;;6.07;3.80;;;12.40;99.90;;;;;;5070440;28;20293;-74
2022/04/13 08:58:36;;;;;;;14.68;4.38;;;12.30;99.90;;;;;;5069853;28;20226;-75
2022/04/13 09:01:10;;;;;;;18.40;4.97;;;12.40;99.90;;;;;;5070566;28;20244;-74
2022/04/13 09:03:44;;;;;;;8.65;4.43;;;12.50;99.90;;;;;;5071023;28;20214;-78
2022/04/13 09:06:12;;;;;;;14.25;4.38;;;12.50;99.90;;;;;;5070684;28;20662;-75
2022/04/13 09:08:49;;;;;;;17.75;5.75;;;12.50;99.90;;;;;;5070324;28;20210;-75
2022/04/13 09:11:19;;;;;;;23.63;6.05;;;12.70;99.90;;;;;;5069772;28;20293;-81
2022/04/13 09:13:47;;;;;;;10.50;4.90;;;12.70;99.90;;;;;;5064859;28;20202;-77
2022/04/13 09:16:15;;;;;;;14.70;4.82;;;12.70;99.90;;;;;;5069807;28;20206;-76
2022/04/13 09:18:44;;;;;;;15.07;6.28;;;12.70;99.90;;;;;;5070573;28;20252;-78
2022/04/13 09:21:13;;;;;;;15.18;4.75;;;12.80;99.90;;;;;;5071242;28;20291;-78
2022/04/13 09:23:40;;;;;;;11.65;5.93;;;12.80;99.90;;;;;;5071012;28;20241;-79
2022/04/13 09:26:08;;;;;;;16.63;4.40;;;12.80;99.90;;;;;;5067464;28;20256;-73
2022/04/13 09:28:37;;;;;;;13.38;5.65;;;12.90;99.90;;;;;;5070284;28;20202;-72
2022/04/13 09:31:04;;;;;;;10.73;4.32;;;12.90;99.90;;;;;;5069930;28;20246;-76
2022/04/13 09:33:31;;;;;;;14.27;5.10;;;12.90;99.90;;;;;;5069311;28;21051;-74
2022/04/13 09:35:59;;;;;;;18.63;4.78;;;12.90;99.90;;;;;;5070846;28;20263;-72
2022/04/13 09:38:28;;;;;;;12.85;4.25;;;13.00;99.90;;;;;;5070800;28;20237;-72
2022/04/13 09:41:06;;;;;;;14.40;4.20;;;13.10;99.90;;;;;;5069859;28;20221;-72
2022/04/13 09:43:32;;;;;;;10.18;4.60;;;13.20;99.90;;;;;;5069641;28;20191;-77
2022/04/13 09:45:59;;;;;;;16.00;5.28;;;13.10;99.90;;;;;;5070359;28;20629;-78
2022/04/13 09:48:28;;;;;;;15.05;5.18;;;13.20;99.90;;;;;;5070049;28;20206;-75
2022/04/13 09:51:00;;;;;;;10.88;3.97;;;13.30;99.90;;;;;;5070118;28;20225;-75
2022/04/13 09:53:27;;;;;;;13.30;5.07;;;13.20;99.90;;;;;;5059228;28;20199;-76
2022/04/13 09:55:55;;;;;;;14.80;4.70;;;13.30;99.90;;;;;;5067743;28;20731;-72
2022/04/13 09:58:25;;;;;;;14.55;4.20;;;13.50;99.90;;;;;;5069601;28;20210;-77
2022/04/13 10:00:53;;;;;;;11.27;3.60;;;13.40;99.90;;;;;;5066280;28;20685;-76
2022/04/13 10:03:21;;;;;;;15.82;5.25;;;13.50;99.90;;;;;;5067550;28;20704;-76
2022/04/13 10:05:50;;;;;;;12.93;3.97;;;13.40;99.90;;;;;;5069963;28;20203;-74
2022/04/13 10:08:22;;;;;;;14.35;4.75;;;13.40;99.90;;;;;;5069630;28;20248;-73
2022/04/13 10:10:51;;;;;;;15.50;4.65;;;13.40;99.90;;;;;;5062712;28;20198;-74
2022/04/13 10:13:32;;;;;;;12.02;3.60;;;13.50;99.90;;;;;;5069689;28;20634;-79
2022/04/13 10:16:00;;;;;;;13.73;4.57;;;13.50;99.90;;;;;;5066505;28;20209;-76
2022/04/13 10:18:28;;;;;;;9.32;3.67;;;13.40;99.90;;;;;;5065278;28;20988;-75
2022/04/13 10:20:55;;;;;;;14.52;4.95;;;13.30;99.90;;;;;;5068417;28;20226;-74
2022/04/13 10:23:24;;;;;;;13.48;5.35;;;13.30;99.90;;;;;;5066743;28;20206;-73
2022/04/13 10:26:09;;;;;;;16.58;4.60;;;13.20;99.90;;;;;;5068055;28;20263;-74
2022/04/13 10:28:47;;;;;;;9.75;3.40;;;13.10;99.90;;;;;;5068498;28;20206;-73
2022/04/13 10:31:14;;;;;;;16.25;4.22;;;13.10;99.90;;;;;;5072425;28;20232;-73
2022/04/13 10:33:46;;;;;;;14.07;4.10;;;13.00;99.90;;;;;;5073036;28;20545;-76
2022/04/13 10:36:13;;;;;;;9.40;5.30;;;13.10;99.90;;;;;;5073107;28;20210;-74
2022/04/13 10:38:42;;;;;;;13.98;5.10;;;13.00;99.90;;;;;;5074250;28;20259;-72
2022/04/13 10:41:15;;;;;;;12.93;5.00;;;13.00;99.90;;;;;;5074199;28;20230;-74
2022/04/13 10:43:43;;;;;;;9.93;4.07;;;13.20;99.90;;;;;;5073328;28;20210;-75
2022/04/13 10:46:10;;;;;;;21.85;5.82;;;13.10;99.90;;;;;;5074614;28;20206;-74
2022/04/13 10:48:41;;;;;;;19.75;6.60;;;13.00;99.90;;;;;;5073222;28;20251;-74
2022/04/13 10:51:12;;;;;;;9.23;4.25;;;12.90;99.90;;;;;;5073150;28;20633;-75
2022/04/13 10:53:47;;;;;;;13.43;5.28;;;13.00;99.90;;;;;;5073295;28;20218;-76
2022/04/13 10:56:15;;;;;;;14.63;5.10;;;13.10;99.90;;;;;;5065208;28;20205;-75
2022/04/13 10:58:52;;;;;;;15.23;6.53;;;13.00;99.90;;;;;;5067000;28;20284;-74
2022/04/13 11:01:21;;;;;;;12.98;5.93;;;13.10;99.90;;;;;;5071007;28;20263;-73
2022/04/13 11:03:49;;;;;;;15.60;5.28;;;13.00;99.90;;;;;;5072253;28;20673;-73
2022/04/13 11:06:16;;;;;;;15.35;4.63;;;13.00;99.90;;;;;;5072497;28;20210;-73
2022/04/13 11:08:48;;;;;;;9.93;5.00;;;12.90;99.90;;;;;;5072633;28;20206;-73
2022/04/13 11:11:19;;;;;;;15.00;5.43;;;13.00;99.90;;;;;;5072647;28;20293;-73
2022/04/13 11:13:48;;;;;;;13.32;4.78;;;13.00;99.90;;;;;;5069941;28;20214;-76
2022/04/13 11:16:17;;;;;;;14.77;5.53;;;13.10;99.90;;;;;;5072560;28;20206;-76
2022/04/13 11:19:09;;;;;;;17.20;6.43;;;13.10;99.90;;;;;;5069237;28;20210;-75
2022/04/13 11:21:57;;;;;;;16.35;5.28;;;13.20;99.90;;;;;;5071605;28;20222;-76
2022/04/13 11:24:35;;;;;;;12.98;4.95;;;13.30;99.90;;;;;;5065770;28;20198;-75
2022/04/13 11:27:02;;;;;;;14.70;5.60;;;13.10;99.90;;;;;;5063665;28;20206;-75
2022/04/13 11:29:34;;;;;;;13.02;5.22;;;13.00;99.90;;;;;;5061061;28;20214;-76
2022/04/13 11:32:10;;;;;;;13.07;4.40;;;13.10;99.90;;;;;;5069881;28;20761;-76
2022/04/13 11:34:39;;;;;;;12.75;5.57;;;13.00;99.90;;;;;;5071979;28;20205;-74
2022/04/13 11:37:08;;;;;;;14.48;6.43;;;13.10;99.90;;;;;;5068692;28;20297;-74
2022/04/13 11:39:51;;;;;;;13.07;5.68;;;13.00;99.90;;;;;;5072584;28;20206;-75
2022/04/13 11:42:52;;;;;;;16.13;5.85;;;13.10;99.90;;;;;;5074232;28;20214;-73
2022/04/13 11:45:20;;;;;;;11.57;4.95;;;13.10;99.90;;;;;;5059483;28;20284;-75
2022/04/13 11:47:54;;;;;;;10.65;5.32;;;13.10;99.90;;;;;;5072284;28;20206;-76
2022/04/13 11:50:23;;;;;;;12.52;5.15;;;13.30;99.90;;;;;;5071475;28;20649;-77
2022/04/13 11:52:52;;;;;;;12.00;4.93;;;13.20;99.90;;;;;;5070837;28;20210;-76
2022/04/13 11:55:22;;;;;;;16.83;6.38;;;13.10;99.90;;;;;;5071069;28;20255;-76
2022/04/13 11:57:58;;;;;;;16.80;5.85;;;13.20;99.90;;;;;;5070222;28;20210;-76
2022/04/13 12:00:39;;;;;;;15.38;6.03;;;13.20;99.90;;;;;;5072079;28;20701;-76
2022/04/13 12:03:07;;;;;;;19.13;8.50;;;13.10;99.90;;;;;;5071167;28;20214;-75
2022/04/13 12:05:36;;;;;;;15.38;5.30;;;13.20;99.90;;;;;;5070918;28;20621;-80
2022/04/13 12:08:10;;;;;;;20.15;8.93;;;13.30;99.90;;;;;;5071213;28;20206;-78
2022/04/13 12:10:40;;;;;;;16.60;5.72;;;13.30;99.90;;;;;;5071200;28;20251;-77
2022/04/13 12:13:07;;;;;;;20.27;5.78;;;13.20;99.90;;;;;;5070844;28;20210;-77
2022/04/13 12:15:45;;;;;;;16.23;5.03;;;13.10;99.90;;;;;;5070491;28;20206;-76
2022/04/13 12:18:12;;;;;;;14.27;5.18;;;13.10;99.90;;;;;;5064164;28;20206;-76
2022/04/13 12:20:40;;;;;;;13.80;5.10;;;13.20;99.90;;;;;;5069691;28;20226;-76
2022/04/13 12:23:25;;;;;;;12.27;6.32;;;13.20;99.90;;;;;;5071284;28;20213;-76
2022/04/13 12:25:55;;;;;;;18.55;7.15;;;13.30;99.90;;;;;;5071136;28;20217;-77
2022/04/13 12:28:24;;;;;;;20.40;6.30;;;15.00;99.90;;;;;;5071720;28;20210;-77
2022/04/13 12:31:01;;;;;;;15.52;5.10;;;13.20;1.00;;;;;;5071212;28;20259;-77
2022/04/13 12:33:30;;;;;;;22.23;9.68;;;13.20;99.90;;;;;;5069498;28;20635;-76
2022/04/13 12:35:59;;;;;;;18.30;5.68;;;13.20;99.90;;;;;;5064823;28;20214;-74
2022/04/13 12:38:31;;;;;;;11.88;5.93;;;13.20;99.90;;;;;;5069104;28;20289;-77
2022/04/13 12:41:13;;;;;;;15.50;6.65;;;13.20;99.90;;;;;;5072864;28;20593;-77
2022/04/13 12:43:42;;;;;;;18.40;7.60;;;13.30;99.90;;;;;;5070929;28;20279;-77
2022/04/13 12:46:11;;;;;;;13.38;5.57;;;13.30;99.90;;;;;;5071299;28;20213;-79
2022/04/13 12:48:38;;;;;;;15.20;5.88;;;13.10;99.90;;;;;;5067336;28;20207;-78
2022/04/13 12:51:06;;;;;;;20.55;7.40;;;13.30;99.90;;;;;;5063997;28;20207;-82